sensor_id;sensor_type;location;lat;lon;timestamp;P1;durP1;ratioP1;P2;durP2;ratioP2
10082;SDS011;5080;48.528;8.078;2023-09-19T00:01:32;22.83;;;22.03;;
10082;SDS011;5080;48.528;8.078;2023-09-19T00:04:01;21.50;;;20.80;;
10082;SDS011;5080;48.528;8.078;2023-09-19T00:06:28;21.40;;;20.70;;
10082;SDS011;5080;48.528;8.078;2023-09-19T00:08:56;22.80;;;22.00;;
10082;SDS011;5080;48.528;8.078;2023-09-19T00:11:25;21.10;;;20.40;;
10082;SDS011;5080;48.528;8.078;2023-09-19T00:13:52;26.03;;;25.10;;
10082;SDS011;5080;48.528;8.078;2023-09-19T00:16:19;21.53;;;20.83;;
10082;SDS011;5080;48.528;8.078;2023-09-19T00:18:46;23.93;;;23.13;;
10082;SDS011;5080;48.528;8.078;2023-09-19T00:21:15;22.27;;;21.47;;
10082;SDS011;5080;48.528;8.078;2023-09-19T00:23:42;23.03;;;22.23;;
10082;SDS011;5080;48.528;8.078;2023-09-19T00:26:09;21.67;;;20.97;;
10082;SDS011;5080;48.528;8.078;2023-09-19T00:28:36;23.47;;;22.67;;
10082;SDS011;5080;48.528;8.078;2023-09-19T00:31:02;21.47;;;20.67;;
10082;SDS011;5080;48.528;8.078;2023-09-19T00:33:30;21.47;;;20.77;;
10082;SDS011;5080;48.528;8.078;2023-09-19T00:35:57;25.33;;;24.42;;
10082;SDS011;5080;48.528;8.078;2023-09-19T00:38:26;24.50;;;23.67;;
10082;SDS011;5080;48.528;8.078;2023-09-19T00:40:53;20.07;;;19.37;;
10082;SDS011;5080;48.528;8.078;2023-09-19T00:43:21;25.93;;;25.03;;
10082;SDS011;5080;48.528;8.078;2023-09-19T00:45:50;23.83;;;23.03;;
10082;SDS011;5080;48.528;8.078;2023-09-19T00:48:18;24.43;;;23.60;;
10082;SDS011;5080;48.528;8.078;2023-09-19T00:50:46;23.23;;;22.43;;
10082;SDS011;5080;48.528;8.078;2023-09-19T00:53:15;24.75;;;23.95;;
10082;SDS011;5080;48.528;8.078;2023-09-19T00:55:45;23.20;;;22.40;;
10082;SDS011;5080;48.528;8.078;2023-09-19T00:58:14;24.27;;;23.47;;
10082;SDS011;5080;48.528;8.078;2023-09-19T01:00:43;24.80;;;23.93;;
10082;SDS011;5080;48.528;8.078;2023-09-19T01:03:10;22.40;;;21.60;;
10082;SDS011;5080;48.528;8.078;2023-09-19T01:05:38;23.27;;;22.43;;
10082;SDS011;5080;48.528;8.078;2023-09-19T01:08:05;21.77;;;21.07;;
10082;SDS011;5080;48.528;8.078;2023-09-19T01:10:32;22.37;;;21.57;;
10082;SDS011;5080;48.528;8.078;2023-09-19T01:13:03;22.87;;;22.07;;
10082;SDS011;5080;48.528;8.078;2023-09-19T01:15:46;22.53;;;21.73;;
10082;SDS011;5080;48.528;8.078;2023-09-19T01:18:21;22.93;;;22.03;;
10082;SDS011;5080;48.528;8.078;2023-09-19T01:21:00;25.23;;;24.33;;
10082;SDS011;5080;48.528;8.078;2023-09-19T01:23:38;23.87;;;23.07;;
10082;SDS011;5080;48.528;8.078;2023-09-19T01:26:27;28.90;;;27.80;;
10082;SDS011;5080;48.528;8.078;2023-09-19T01:29:15;28.47;;;27.47;;
10082;SDS011;5080;48.528;8.078;2023-09-19T01:31:56;25.47;;;24.57;;
10082;SDS011;5080;48.528;8.078;2023-09-19T01:34:26;26.40;;;25.40;;
10082;SDS011;5080;48.528;8.078;2023-09-19T01:36:53;27.37;;;26.40;;
10082;SDS011;5080;48.528;8.078;2023-09-19T01:39:20;30.50;;;29.47;;
10082;SDS011;5080;48.528;8.078;2023-09-19T01:41:50;26.40;;;25.50;;
10082;SDS011;5080;48.528;8.078;2023-09-19T01:44:24;24.77;;;23.93;;
10082;SDS011;5080;48.528;8.078;2023-09-19T01:46:58;25.87;;;24.97;;
10082;SDS011;5080;48.528;8.078;2023-09-19T01:49:33;31.60;;;30.40;;
10082;SDS011;5080;48.528;8.078;2023-09-19T01:52:09;23.90;;;23.10;;
10082;SDS011;5080;48.528;8.078;2023-09-19T01:54:41;24.50;;;23.63;;
10082;SDS011;5080;48.528;8.078;2023-09-19T01:57:16;23.50;;;22.70;;
10082;SDS011;5080;48.528;8.078;2023-09-19T01:59:48;28.87;;;27.87;;
10082;SDS011;5080;48.528;8.078;2023-09-19T02:02:22;32.83;;;31.67;;
10082;SDS011;5080;48.528;8.078;2023-09-19T02:04:51;25.80;;;24.80;;
10082;SDS011;5080;48.528;8.078;2023-09-19T02:07:18;25.73;;;24.83;;
10082;SDS011;5080;48.528;8.078;2023-09-19T02:09:45;23.23;;;22.43;;
10082;SDS011;5080;48.528;8.078;2023-09-19T02:12:13;37.53;;;36.17;;
10082;SDS011;5080;48.528;8.078;2023-09-19T02:14:40;32.07;;;30.97;;
10082;SDS011;5080;48.528;8.078;2023-09-19T02:17:07;30.10;;;29.07;;
10082;SDS011;5080;48.528;8.078;2023-09-19T02:19:38;34.20;;;33.00;;
10082;SDS011;5080;48.528;8.078;2023-09-19T02:22:06;30.33;;;29.23;;
10082;SDS011;5080;48.528;8.078;2023-09-19T02:24:35;32.30;;;31.23;;
10082;SDS011;5080;48.528;8.078;2023-09-19T02:27:03;31.60;;;30.47;;
10082;SDS011;5080;48.528;8.078;2023-09-19T02:29:32;27.60;;;26.67;;
10082;SDS011;5080;48.528;8.078;2023-09-19T02:32:00;24.73;;;23.90;;
10082;SDS011;5080;48.528;8.078;2023-09-19T02:34:27;39.67;;;38.27;;
10082;SDS011;5080;48.528;8.078;2023-09-19T02:36:56;39.47;;;38.07;;
10082;SDS011;5080;48.528;8.078;2023-09-19T02:39:23;38.27;;;36.90;;
10082;SDS011;5080;48.528;8.078;2023-09-19T02:41:50;33.40;;;32.20;;
10082;SDS011;5080;48.528;8.078;2023-09-19T02:44:17;37.17;;;35.87;;
10082;SDS011;5080;48.528;8.078;2023-09-19T02:46:45;25.50;;;24.60;;
10082;SDS011;5080;48.528;8.078;2023-09-19T02:49:12;27.17;;;26.20;;
10082;SDS011;5080;48.528;8.078;2023-09-19T02:51:39;25.30;;;24.40;;
10082;SDS011;5080;48.528;8.078;2023-09-19T02:54:08;25.77;;;24.87;;
10082;SDS011;5080;48.528;8.078;2023-09-19T02:56:36;34.97;;;33.77;;
10082;SDS011;5080;48.528;8.078;2023-09-19T02:59:03;25.02;;;24.13;;
10082;SDS011;5080;48.528;8.078;2023-09-19T03:01:30;27.00;;;26.07;;
10082;SDS011;5080;48.528;8.078;2023-09-19T03:03:58;25.97;;;25.07;;
10082;SDS011;5080;48.528;8.078;2023-09-19T03:06:25;25.50;;;24.60;;
10082;SDS011;5080;48.528;8.078;2023-09-19T03:08:52;24.83;;;23.97;;
10082;SDS011;5080;48.528;8.078;2023-09-19T03:11:22;28.93;;;27.97;;
10082;SDS011;5080;48.528;8.078;2023-09-19T03:13:53;21.60;;;20.90;;
10082;SDS011;5080;48.528;8.078;2023-09-19T03:16:20;21.63;;;20.87;;
10082;SDS011;5080;48.528;8.078;2023-09-19T03:18:47;21.93;;;21.20;;
10082;SDS011;5080;48.528;8.078;2023-09-19T03:21:14;23.57;;;22.77;;
10082;SDS011;5080;48.528;8.078;2023-09-19T03:23:42;20.13;;;19.43;;
10082;SDS011;5080;48.528;8.078;2023-09-19T03:26:10;20.33;;;19.63;;
10082;SDS011;5080;48.528;8.078;2023-09-19T03:28:39;23.60;;;22.80;;
10082;SDS011;5080;48.528;8.078;2023-09-19T03:31:06;22.60;;;21.83;;
10082;SDS011;5080;48.528;8.078;2023-09-19T03:33:33;23.87;;;23.03;;
10082;SDS011;5080;48.528;8.078;2023-09-19T03:36:00;23.40;;;22.60;;
10082;SDS011;5080;48.528;8.078;2023-09-19T03:38:29;30.10;;;29.07;;
10082;SDS011;5080;48.528;8.078;2023-09-19T03:40:57;21.27;;;20.47;;
10082;SDS011;5080;48.528;8.078;2023-09-19T03:43:24;21.43;;;20.70;;
10082;SDS011;5080;48.528;8.078;2023-09-19T03:45:52;27.33;;;26.37;;
10082;SDS011;5080;48.528;8.078;2023-09-19T03:48:19;20.80;;;20.10;;
10082;SDS011;5080;48.528;8.078;2023-09-19T03:50:48;36.77;;;35.50;;
10082;SDS011;5080;48.528;8.078;2023-09-19T03:53:15;29.83;;;28.80;;
10082;SDS011;5080;48.528;8.078;2023-09-19T03:55:41;27.70;;;26.73;;
10082;SDS011;5080;48.528;8.078;2023-09-19T03:58:11;19.88;;;19.17;;
10082;SDS011;5080;48.528;8.078;2023-09-19T04:00:38;29.83;;;28.80;;
10082;SDS011;5080;48.528;8.078;2023-09-19T04:03:06;21.98;;;21.17;;
10082;SDS011;5080;48.528;8.078;2023-09-19T04:05:33;21.47;;;20.73;;
10082;SDS011;5080;48.528;8.078;2023-09-19T04:08:00;19.98;;;19.27;;
10082;SDS011;5080;48.528;8.078;2023-09-19T04:10:26;19.00;;;18.30;;
10082;SDS011;5080;48.528;8.078;2023-09-19T04:12:53;21.17;;;20.47;;
10082;SDS011;5080;48.528;8.078;2023-09-19T04:15:21;22.23;;;21.47;;
10082;SDS011;5080;48.528;8.078;2023-09-19T04:17:48;34.97;;;33.77;;
10082;SDS011;5080;48.528;8.078;2023-09-19T04:20:17;25.00;;;24.10;;
10082;SDS011;5080;48.528;8.078;2023-09-19T04:22:44;21.00;;;20.30;;
10082;SDS011;5080;48.528;8.078;2023-09-19T04:25:12;22.73;;;21.93;;
10082;SDS011;5080;48.528;8.078;2023-09-19T04:27:39;25.43;;;24.53;;
10082;SDS011;5080;48.528;8.078;2023-09-19T04:30:07;26.70;;;25.80;;
10082;SDS011;5080;48.528;8.078;2023-09-19T04:32:37;24.23;;;23.40;;
10082;SDS011;5080;48.528;8.078;2023-09-19T04:35:05;24.17;;;23.37;;
10082;SDS011;5080;48.528;8.078;2023-09-19T04:37:34;29.37;;;28.37;;
10082;SDS011;5080;48.528;8.078;2023-09-19T04:40:06;20.63;;;19.93;;
10082;SDS011;5080;48.528;8.078;2023-09-19T04:42:37;23.40;;;22.60;;
10082;SDS011;5080;48.528;8.078;2023-09-19T04:45:05;25.27;;;24.37;;
10082;SDS011;5080;48.528;8.078;2023-09-19T04:47:33;29.40;;;28.30;;
10082;SDS011;5080;48.528;8.078;2023-09-19T04:50:00;32.50;;;31.20;;
10082;SDS011;5080;48.528;8.078;2023-09-19T04:52:28;34.67;;;33.47;;
10082;SDS011;5080;48.528;8.078;2023-09-19T04:54:58;24.67;;;23.80;;
10082;SDS011;5080;48.528;8.078;2023-09-19T04:57:25;28.23;;;27.23;;
10082;SDS011;5080;48.528;8.078;2023-09-19T04:59:53;31.77;;;30.57;;
10082;SDS011;5080;48.528;8.078;2023-09-19T05:02:20;29.03;;;28.00;;
10082;SDS011;5080;48.528;8.078;2023-09-19T05:04:47;30.87;;;29.77;;
10082;SDS011;5080;48.528;8.078;2023-09-19T05:07:14;28.57;;;27.57;;
10082;SDS011;5080;48.528;8.078;2023-09-19T05:09:41;28.17;;;27.17;;
10082;SDS011;5080;48.528;8.078;2023-09-19T05:12:09;30.83;;;29.73;;
10082;SDS011;5080;48.528;8.078;2023-09-19T05:14:36;36.73;;;35.43;;
10082;SDS011;5080;48.528;8.078;2023-09-19T05:17:05;30.17;;;29.07;;
10082;SDS011;5080;48.528;8.078;2023-09-19T05:19:32;31.37;;;30.27;;
10082;SDS011;5080;48.528;8.078;2023-09-19T05:22:00;34.43;;;33.23;;
10082;SDS011;5080;48.528;8.078;2023-09-19T05:24:29;24.50;;;23.70;;
10082;SDS011;5080;48.528;8.078;2023-09-19T05:26:56;32.60;;;31.50;;
10082;SDS011;5080;48.528;8.078;2023-09-19T05:29:24;29.43;;;28.43;;
10082;SDS011;5080;48.528;8.078;2023-09-19T05:31:51;33.70;;;32.50;;
10082;SDS011;5080;48.528;8.078;2023-09-19T05:34:19;27.43;;;26.43;;
10082;SDS011;5080;48.528;8.078;2023-09-19T05:36:46;30.90;;;29.80;;
10082;SDS011;5080;48.528;8.078;2023-09-19T05:39:14;27.23;;;26.27;;
10082;SDS011;5080;48.528;8.078;2023-09-19T05:41:41;31.17;;;30.07;;
10082;SDS011;5080;48.528;8.078;2023-09-19T05:44:07;28.57;;;27.57;;
10082;SDS011;5080;48.528;8.078;2023-09-19T05:46:36;33.97;;;32.77;;
10082;SDS011;5080;48.528;8.078;2023-09-19T05:49:03;29.80;;;28.73;;
10082;SDS011;5080;48.528;8.078;2023-09-19T05:51:30;30.30;;;29.20;;
10082;SDS011;5080;48.528;8.078;2023-09-19T05:53:56;31.07;;;29.97;;
10082;SDS011;5080;48.528;8.078;2023-09-19T05:56:23;34.40;;;33.17;;
10082;SDS011;5080;48.528;8.078;2023-09-19T05:58:50;32.17;;;30.90;;
10082;SDS011;5080;48.528;8.078;2023-09-19T06:01:18;32.80;;;31.63;;
10082;SDS011;5080;48.528;8.078;2023-09-19T06:03:46;30.33;;;29.23;;
10082;SDS011;5080;48.528;8.078;2023-09-19T06:06:13;34.97;;;33.73;;
10082;SDS011;5080;48.528;8.078;2023-09-19T06:08:40;27.40;;;26.47;;
10082;SDS011;5080;48.528;8.078;2023-09-19T06:11:09;24.00;;;23.20;;
10082;SDS011;5080;48.528;8.078;2023-09-19T06:13:36;27.63;;;26.67;;
10082;SDS011;5080;48.528;8.078;2023-09-19T06:16:04;31.07;;;29.97;;
10082;SDS011;5080;48.528;8.078;2023-09-19T06:18:31;34.27;;;33.07;;
10082;SDS011;5080;48.528;8.078;2023-09-19T06:21:00;23.77;;;22.93;;
10082;SDS011;5080;48.528;8.078;2023-09-19T06:23:30;26.13;;;25.23;;
10082;SDS011;5080;48.528;8.078;2023-09-19T06:25:57;29.17;;;28.17;;
10082;SDS011;5080;48.528;8.078;2023-09-19T06:28:24;21.67;;;20.90;;
10082;SDS011;5080;48.528;8.078;2023-09-19T06:30:53;17.90;;;17.23;;
10082;SDS011;5080;48.528;8.078;2023-09-19T06:33:20;17.67;;;16.97;;
10082;SDS011;5080;48.528;8.078;2023-09-19T06:35:47;17.80;;;17.20;;
10082;SDS011;5080;48.528;8.078;2023-09-19T06:38:15;21.43;;;20.67;;
10082;SDS011;5080;48.528;8.078;2023-09-19T06:40:44;19.67;;;19.02;;
10082;SDS011;5080;48.528;8.078;2023-09-19T06:43:11;12.18;;;11.77;;
10082;SDS011;5080;48.528;8.078;2023-09-19T06:45:39;13.00;;;12.60;;
10082;SDS011;5080;48.528;8.078;2023-09-19T06:48:06;18.87;;;18.20;;
10082;SDS011;5080;48.528;8.078;2023-09-19T06:50:35;27.17;;;26.23;;
10082;SDS011;5080;48.528;8.078;2023-09-19T06:53:02;17.73;;;17.13;;
10082;SDS011;5080;48.528;8.078;2023-09-19T06:55:31;14.37;;;13.87;;
10082;SDS011;5080;48.528;8.078;2023-09-19T06:57:59;13.70;;;13.20;;
10082;SDS011;5080;48.528;8.078;2023-09-19T07:00:26;13.30;;;12.90;;
10082;SDS011;5080;48.528;8.078;2023-09-19T07:02:56;12.90;;;12.50;;
10082;SDS011;5080;48.528;8.078;2023-09-19T07:05:26;15.07;;;14.57;;
10082;SDS011;5080;48.528;8.078;2023-09-19T07:07:54;14.37;;;13.87;;
10082;SDS011;5080;48.528;8.078;2023-09-19T07:10:21;13.73;;;13.23;;
10082;SDS011;5080;48.528;8.078;2023-09-19T07:12:55;14.10;;;13.60;;
10082;SDS011;5080;48.528;8.078;2023-09-19T07:15:23;14.80;;;14.30;;
10082;SDS011;5080;48.528;8.078;2023-09-19T07:17:50;15.00;;;14.50;;
10082;SDS011;5080;48.528;8.078;2023-09-19T07:20:18;15.40;;;14.90;;
10082;SDS011;5080;48.528;8.078;2023-09-19T07:22:45;16.77;;;16.17;;
10082;SDS011;5080;48.528;8.078;2023-09-19T07:25:13;20.77;;;20.03;;
10082;SDS011;5080;48.528;8.078;2023-09-19T07:27:40;17.37;;;16.77;;
10082;SDS011;5080;48.528;8.078;2023-09-19T07:30:09;16.67;;;15.97;;
10082;SDS011;5080;48.528;8.078;2023-09-19T07:32:37;14.90;;;14.40;;
10082;SDS011;5080;48.528;8.078;2023-09-19T07:35:04;15.40;;;14.90;;
10082;SDS011;5080;48.528;8.078;2023-09-19T07:37:31;16.50;;;15.90;;
10082;SDS011;5080;48.528;8.078;2023-09-19T07:39:58;15.07;;;14.57;;
10082;SDS011;5080;48.528;8.078;2023-09-19T07:42:26;15.60;;;15.10;;
10082;SDS011;5080;48.528;8.078;2023-09-19T07:44:52;16.60;;;16.00;;
10082;SDS011;5080;48.528;8.078;2023-09-19T07:47:21;15.07;;;14.57;;
10082;SDS011;5080;48.528;8.078;2023-09-19T07:49:47;16.27;;;15.67;;
10082;SDS011;5080;48.528;8.078;2023-09-19T07:52:14;16.03;;;15.43;;
10082;SDS011;5080;48.528;8.078;2023-09-19T07:54:41;15.67;;;15.17;;
10082;SDS011;5080;48.528;8.078;2023-09-19T07:57:09;18.87;;;18.23;;
10082;SDS011;5080;48.528;8.078;2023-09-19T07:59:37;19.03;;;18.40;;
10082;SDS011;5080;48.528;8.078;2023-09-19T08:02:07;19.13;;;18.43;;
10082;SDS011;5080;48.528;8.078;2023-09-19T08:04:36;17.38;;;16.77;;
10082;SDS011;5080;48.528;8.078;2023-09-19T08:07:02;18.43;;;17.83;;
10082;SDS011;5080;48.528;8.078;2023-09-19T08:09:30;18.60;;;18.00;;
10082;SDS011;5080;48.528;8.078;2023-09-19T08:11:59;18.50;;;17.90;;
10082;SDS011;5080;48.528;8.078;2023-09-19T08:14:29;17.98;;;17.38;;
10082;SDS011;5080;48.528;8.078;2023-09-19T08:16:56;19.00;;;18.38;;
10082;SDS011;5080;48.528;8.078;2023-09-19T08:19:24;15.87;;;15.33;;
10082;SDS011;5080;48.528;8.078;2023-09-19T08:21:56;14.50;;;14.00;;
10082;SDS011;5080;48.528;8.078;2023-09-19T08:24:24;17.00;;;16.42;;
10082;SDS011;5080;48.528;8.078;2023-09-19T08:26:52;17.77;;;17.17;;
10082;SDS011;5080;48.528;8.078;2023-09-19T08:29:19;18.13;;;17.52;;
10082;SDS011;5080;48.528;8.078;2023-09-19T08:31:46;18.10;;;17.50;;
10082;SDS011;5080;48.528;8.078;2023-09-19T08:34:14;17.07;;;16.47;;
10082;SDS011;5080;48.528;8.078;2023-09-19T08:36:41;29.08;;;27.88;;
10082;SDS011;5080;48.528;8.078;2023-09-19T08:39:10;17.35;;;16.75;;
10082;SDS011;5080;48.528;8.078;2023-09-19T08:41:38;17.13;;;16.53;;
10082;SDS011;5080;48.528;8.078;2023-09-19T08:44:05;23.33;;;22.53;;
10082;SDS011;5080;48.528;8.078;2023-09-19T08:46:33;23.50;;;22.65;;
10082;SDS011;5080;48.528;8.078;2023-09-19T08:49:04;16.57;;;15.97;;
10082;SDS011;5080;48.528;8.078;2023-09-19T08:51:36;17.85;;;17.15;;
10082;SDS011;5080;48.528;8.078;2023-09-19T08:54:12;15.43;;;14.93;;
10082;SDS011;5080;48.528;8.078;2023-09-19T08:56:48;15.23;;;14.73;;
10082;SDS011;5080;48.528;8.078;2023-09-19T08:59:16;14.85;;;14.35;;
10082;SDS011;5080;48.528;8.078;2023-09-19T09:01:49;16.07;;;15.47;;
10082;SDS011;5080;48.528;8.078;2023-09-19T09:04:18;15.80;;;15.30;;
10082;SDS011;5080;48.528;8.078;2023-09-19T09:06:46;15.23;;;14.73;;
10082;SDS011;5080;48.528;8.078;2023-09-19T09:09:17;15.95;;;15.43;;
10082;SDS011;5080;48.528;8.078;2023-09-19T09:11:44;15.48;;;14.90;;
10082;SDS011;5080;48.528;8.078;2023-09-19T09:14:11;15.65;;;15.15;;
10082;SDS011;5080;48.528;8.078;2023-09-19T09:16:39;16.33;;;15.73;;
10082;SDS011;5080;48.528;8.078;2023-09-19T09:19:07;16.05;;;15.48;;
10082;SDS011;5080;48.528;8.078;2023-09-19T09:21:36;16.73;;;16.13;;
10082;SDS011;5080;48.528;8.078;2023-09-19T09:26:58;16.43;;;15.90;;
10082;SDS011;5080;48.528;8.078;2023-09-19T09:29:44;17.90;;;17.25;;
10082;SDS011;5080;48.528;8.078;2023-09-19T09:32:17;18.67;;;17.97;;
10082;SDS011;5080;48.528;8.078;2023-09-19T09:34:49;34.70;;;33.13;;
10082;SDS011;5080;48.528;8.078;2023-09-19T09:37:18;31.03;;;29.57;;
10082;SDS011;5080;48.528;8.078;2023-09-19T09:39:50;22.83;;;22.03;;
10082;SDS011;5080;48.528;8.078;2023-09-19T09:42:29;16.38;;;15.77;;
10082;SDS011;5080;48.528;8.078;2023-09-19T09:45:15;16.65;;;16.05;;
10082;SDS011;5080;48.528;8.078;2023-09-19T09:47:43;16.97;;;16.37;;
10082;SDS011;5080;48.528;8.078;2023-09-19T09:50:26;16.30;;;15.70;;
10082;SDS011;5080;48.528;8.078;2023-09-19T09:56:01;17.40;;;16.80;;
10082;SDS011;5080;48.528;8.078;2023-09-19T09:58:31;15.30;;;14.75;;
10082;SDS011;5080;48.528;8.078;2023-09-19T10:00:58;15.47;;;14.97;;
10082;SDS011;5080;48.528;8.078;2023-09-19T10:03:34;15.05;;;14.50;;
10082;SDS011;5080;48.528;8.078;2023-09-19T10:06:07;16.75;;;16.15;;
10082;SDS011;5080;48.528;8.078;2023-09-19T10:08:59;19.17;;;18.47;;
10082;SDS011;5080;48.528;8.078;2023-09-19T10:11:37;21.23;;;20.53;;
10082;SDS011;5080;48.528;8.078;2023-09-19T10:14:08;20.77;;;20.05;;
10082;SDS011;5080;48.528;8.078;2023-09-19T10:16:37;18.87;;;18.23;;
10082;SDS011;5080;48.528;8.078;2023-09-19T10:19:08;21.33;;;20.60;;
10082;SDS011;5080;48.528;8.078;2023-09-19T10:21:37;20.07;;;19.37;;
10082;SDS011;5080;48.528;8.078;2023-09-19T10:24:05;19.33;;;18.63;;
10082;SDS011;5080;48.528;8.078;2023-09-19T10:26:34;19.15;;;18.45;;
10082;SDS011;5080;48.528;8.078;2023-09-19T10:29:05;20.47;;;19.77;;
10082;SDS011;5080;48.528;8.078;2023-09-19T10:31:34;20.17;;;19.48;;
10082;SDS011;5080;48.528;8.078;2023-09-19T10:34:05;19.83;;;19.13;;
10082;SDS011;5080;48.528;8.078;2023-09-19T10:36:35;20.30;;;19.60;;
10082;SDS011;5080;48.528;8.078;2023-09-19T10:39:03;20.77;;;20.08;;
10082;SDS011;5080;48.528;8.078;2023-09-19T10:41:34;16.95;;;16.35;;
10082;SDS011;5080;48.528;8.078;2023-09-19T10:44:04;21.92;;;21.17;;
10082;SDS011;5080;48.528;8.078;2023-09-19T10:46:31;23.33;;;22.52;;
10082;SDS011;5080;48.528;8.078;2023-09-19T10:48:58;23.35;;;22.55;;
10082;SDS011;5080;48.528;8.078;2023-09-19T10:51:27;19.40;;;18.73;;
10082;SDS011;5080;48.528;8.078;2023-09-19T10:53:59;24.60;;;23.60;;
10082;SDS011;5080;48.528;8.078;2023-09-19T10:56:32;18.65;;;18.02;;
10082;SDS011;5080;48.528;8.078;2023-09-19T10:59:07;22.42;;;21.63;;
10082;SDS011;5080;48.528;8.078;2023-09-19T11:01:44;28.00;;;27.02;;
10082;SDS011;5080;48.528;8.078;2023-09-19T11:04:22;26.38;;;25.48;;
10082;SDS011;5080;48.528;8.078;2023-09-19T11:07:03;23.65;;;22.77;;
10082;SDS011;5080;48.528;8.078;2023-09-19T11:09:46;29.05;;;28.05;;
10082;SDS011;5080;48.528;8.078;2023-09-19T11:24:30;36.42;;;35.15;;
10082;SDS011;5080;48.528;8.078;2023-09-19T11:27:10;36.72;;;35.42;;
10082;SDS011;5080;48.528;8.078;2023-09-19T11:29:42;101.57;;;94.70;;
10082;SDS011;5080;48.528;8.078;2023-09-19T11:32:10;38.05;;;36.72;;
10082;SDS011;5080;48.528;8.078;2023-09-19T11:34:42;49.67;;;47.85;;
10082;SDS011;5080;48.528;8.078;2023-09-19T11:40:44;75.00;;;71.20;;
10082;SDS011;5080;48.528;8.078;2023-09-19T11:43:32;26.98;;;26.00;;
10082;SDS011;5080;48.528;8.078;2023-09-19T11:46:01;28.38;;;27.38;;
10082;SDS011;5080;48.528;8.078;2023-09-19T11:48:30;23.45;;;22.65;;
10082;SDS011;5080;48.528;8.078;2023-09-19T11:50:59;28.65;;;27.65;;
10082;SDS011;5080;48.528;8.078;2023-09-19T11:53:32;28.35;;;27.35;;
10082;SDS011;5080;48.528;8.078;2023-09-19T11:56:01;27.98;;;27.02;;
10082;SDS011;5080;48.528;8.078;2023-09-19T11:58:32;30.73;;;29.63;;
10082;SDS011;5080;48.528;8.078;2023-09-19T12:00:59;28.35;;;27.38;;
10082;SDS011;5080;48.528;8.078;2023-09-19T12:03:33;22.02;;;21.27;;
10082;SDS011;5080;48.528;8.078;2023-09-19T12:06:11;30.92;;;29.83;;
10082;SDS011;5080;48.528;8.078;2023-09-19T12:08:39;23.45;;;22.63;;
10082;SDS011;5080;48.528;8.078;2023-09-19T12:11:11;24.85;;;23.98;;
10082;SDS011;5080;48.528;8.078;2023-09-19T12:13:43;34.70;;;33.47;;
10082;SDS011;5080;48.528;8.078;2023-09-19T12:16:12;28.90;;;27.90;;
10082;SDS011;5080;48.528;8.078;2023-09-19T12:18:41;33.95;;;32.58;;
10082;SDS011;5080;48.528;8.078;2023-09-19T12:21:22;41.13;;;39.45;;
10082;SDS011;5080;48.528;8.078;2023-09-19T12:23:59;26.27;;;25.35;;
10082;SDS011;5080;48.528;8.078;2023-09-19T12:26:37;24.83;;;23.98;;
10082;SDS011;5080;48.528;8.078;2023-09-19T12:29:15;27.30;;;26.38;;
10082;SDS011;5080;48.528;8.078;2023-09-19T12:31:47;27.23;;;26.27;;
10082;SDS011;5080;48.528;8.078;2023-09-19T12:34:16;30.23;;;29.17;;
10082;SDS011;5080;48.528;8.078;2023-09-19T12:36:46;23.70;;;22.88;;
10082;SDS011;5080;48.528;8.078;2023-09-19T12:39:22;23.17;;;22.38;;
10082;SDS011;5080;48.528;8.078;2023-09-19T12:41:51;25.98;;;25.08;;
10082;SDS011;5080;48.528;8.078;2023-09-19T12:44:19;28.02;;;27.05;;
10082;SDS011;5080;48.528;8.078;2023-09-19T12:46:46;24.05;;;23.25;;
10082;SDS011;5080;48.528;8.078;2023-09-19T12:49:16;24.75;;;23.90;;
10082;SDS011;5080;48.528;8.078;2023-09-19T12:51:46;27.67;;;26.70;;
10082;SDS011;5080;48.528;8.078;2023-09-19T12:54:13;34.47;;;33.20;;
10082;SDS011;5080;48.528;8.078;2023-09-19T12:56:42;27.23;;;26.27;;
10082;SDS011;5080;48.528;8.078;2023-09-19T12:59:11;28.58;;;27.60;;
10082;SDS011;5080;48.528;8.078;2023-09-19T13:01:40;32.08;;;30.83;;
10082;SDS011;5080;48.528;8.078;2023-09-19T13:04:14;18.77;;;18.13;;
10082;SDS011;5080;48.528;8.078;2023-09-19T13:06:44;19.45;;;18.77;;
10082;SDS011;5080;48.528;8.078;2023-09-19T13:09:14;18.65;;;18.00;;
10082;SDS011;5080;48.528;8.078;2023-09-19T13:11:42;17.67;;;17.08;;
10082;SDS011;5080;48.528;8.078;2023-09-19T13:14:14;17.52;;;16.92;;
10082;SDS011;5080;48.528;8.078;2023-09-19T13:16:56;18.88;;;18.23;;
10082;SDS011;5080;48.528;8.078;2023-09-19T13:19:39;21.30;;;20.58;;
10082;SDS011;5080;48.528;8.078;2023-09-19T13:25:07;19.02;;;18.35;;
10082;SDS011;5080;48.528;8.078;2023-09-19T13:27:38;22.17;;;21.38;;
10082;SDS011;5080;48.528;8.078;2023-09-19T13:30:06;20.20;;;19.48;;
10082;SDS011;5080;48.528;8.078;2023-09-19T13:32:34;18.75;;;18.10;;
10082;SDS011;5080;48.528;8.078;2023-09-19T13:35:01;17.48;;;16.88;;
10082;SDS011;5080;48.528;8.078;2023-09-19T13:37:27;18.10;;;17.50;;
10082;SDS011;5080;48.528;8.078;2023-09-19T13:39:56;21.98;;;21.23;;
10082;SDS011;5080;48.528;8.078;2023-09-19T13:42:24;17.80;;;17.17;;
10082;SDS011;5080;48.528;8.078;2023-09-19T13:44:54;20.35;;;19.65;;
10082;SDS011;5080;48.528;8.078;2023-09-19T13:47:21;18.00;;;17.40;;
10082;SDS011;5080;48.528;8.078;2023-09-19T13:49:51;19.55;;;18.88;;
10082;SDS011;5080;48.528;8.078;2023-09-19T13:52:18;24.13;;;23.17;;
10082;SDS011;5080;48.528;8.078;2023-09-19T13:54:46;24.55;;;23.65;;
10082;SDS011;5080;48.528;8.078;2023-09-19T13:57:15;20.80;;;20.10;;
10082;SDS011;5080;48.528;8.078;2023-09-19T13:59:42;21.85;;;21.10;;
10082;SDS011;5080;48.528;8.078;2023-09-19T14:02:09;18.15;;;17.52;;
10082;SDS011;5080;48.528;8.078;2023-09-19T14:04:36;17.35;;;16.73;;
10082;SDS011;5080;48.528;8.078;2023-09-19T14:07:03;20.45;;;19.75;;
10082;SDS011;5080;48.528;8.078;2023-09-19T14:09:32;17.75;;;17.15;;
10082;SDS011;5080;48.528;8.078;2023-09-19T14:11:59;19.25;;;18.58;;
10082;SDS011;5080;48.528;8.078;2023-09-19T14:14:27;17.83;;;17.23;;
10082;SDS011;5080;48.528;8.078;2023-09-19T14:16:54;18.02;;;17.40;;
10082;SDS011;5080;48.528;8.078;2023-09-19T14:19:21;21.58;;;20.83;;
10082;SDS011;5080;48.528;8.078;2023-09-19T14:21:48;17.08;;;16.48;;
10082;SDS011;5080;48.528;8.078;2023-09-19T14:24:20;18.30;;;17.63;;
10082;SDS011;5080;48.528;8.078;2023-09-19T14:26:47;17.77;;;17.17;;
10082;SDS011;5080;48.528;8.078;2023-09-19T14:29:15;21.33;;;20.60;;
10082;SDS011;5080;48.528;8.078;2023-09-19T14:31:44;21.95;;;21.20;;
10082;SDS011;5080;48.528;8.078;2023-09-19T14:34:10;19.08;;;18.42;;
10082;SDS011;5080;48.528;8.078;2023-09-19T14:36:38;17.00;;;16.40;;
10082;SDS011;5080;48.528;8.078;2023-09-19T14:39:05;17.45;;;16.85;;
10082;SDS011;5080;48.528;8.078;2023-09-19T14:41:33;20.42;;;19.73;;
10082;SDS011;5080;48.528;8.078;2023-09-19T14:44:01;20.05;;;19.35;;
10082;SDS011;5080;48.528;8.078;2023-09-19T14:46:28;16.63;;;16.05;;
10082;SDS011;5080;48.528;8.078;2023-09-19T14:48:57;27.50;;;26.40;;
10082;SDS011;5080;48.528;8.078;2023-09-19T14:51:24;16.05;;;15.55;;
10082;SDS011;5080;48.528;8.078;2023-09-19T14:53:52;16.55;;;15.95;;
10082;SDS011;5080;48.528;8.078;2023-09-19T14:56:19;18.17;;;17.58;;
10082;SDS011;5080;48.528;8.078;2023-09-19T14:58:48;18.27;;;17.65;;
10082;SDS011;5080;48.528;8.078;2023-09-19T15:01:16;16.83;;;16.23;;
10082;SDS011;5080;48.528;8.078;2023-09-19T15:03:42;17.27;;;16.67;;
10082;SDS011;5080;48.528;8.078;2023-09-19T15:06:13;18.58;;;17.95;;
10082;SDS011;5080;48.528;8.078;2023-09-19T15:08:42;19.05;;;18.40;;
10082;SDS011;5080;48.528;8.078;2023-09-19T15:11:10;19.05;;;18.40;;